sensor_id;sensor_type;location;lat;lon;timestamp;pressure;altitude;pressure_sealevel;temperature;humidity
33404;BME280;19751;40.274;18.268;2023-02-03T00:00:15;101885.69;;;7.63;100.00
33404;BME280;19751;40.274;18.268;2023-02-03T00:02:41;101886.69;;;7.62;100.00
33404;BME280;19751;40.274;18.268;2023-02-03T00:05:07;101882.19;;;7.72;100.00
33404;BME280;19751;40.274;18.268;2023-02-03T00:07:32;101867.19;;;7.89;100.00
33404;BME280;19751;40.274;18.268;2023-02-03T00:10:00;101863.75;;;8.06;100.00
33404;BME280;19751;40.274;18.268;2023-02-03T00:12:27;101864.72;;;8.15;100.00
33404;BME280;19751;40.274;18.268;2023-02-03T00:14:52;101870.19;;;8.23;100.00
33404;BME280;19751;40.274;18.268;2023-02-03T00:17:18;101865.94;;;8.30;100.00
33404;BME280;19751;40.274;18.268;2023-02-03T00:19:43;101868.19;;;8.35;100.00
33404;BME280;19751;40.274;18.268;2023-02-03T00:22:09;101864.38;;;8.37;100.00
33404;BME280;19751;40.274;18.268;2023-02-03T00:24:34;101867.06;;;8.37;100.00
33404;BME280;19751;40.274;18.268;2023-02-03T00:27:00;101863.66;;;8.35;100.00
33404;BME280;19751;40.274;18.268;2023-02-03T00:29:25;101863.81;;;8.34;100.00
33404;BME280;19751;40.274;18.268;2023-02-03T00:31:52;101858.28;;;8.35;100.00
33404;BME280;19751;40.274;18.268;2023-02-03T00:34:18;101860.13;;;8.35;100.00
33404;BME280;19751;40.274;18.268;2023-02-03T00:36:44;101863.53;;;8.37;100.00
33404;BME280;19751;40.274;18.268;2023-02-03T00:39:13;101871.31;;;8.40;100.00
33404;BME280;19751;40.274;18.268;2023-02-03T00:41:38;101868.44;;;8.41;100.00
33404;BME280;19751;40.274;18.268;2023-02-03T00:44:06;101880.06;;;8.42;100.00
33404;BME280;19751;40.274;18.268;2023-02-03T00:46:32;101872.13;;;8.40;100.00
33404;BME280;19751;40.274;18.268;2023-02-03T00:49:00;101869.47;;;8.40;100.00
33404;BME280;19751;40.274;18.268;2023-02-03T00:51:26;101859.72;;;8.39;100.00
33404;BME280;19751;40.274;18.268;2023-02-03T00:53:51;101859.72;;;8.39;100.00
33404;BME280;19751;40.274;18.268;2023-02-03T00:56:16;101858.88;;;8.39;100.00
33404;BME280;19751;40.274;18.268;2023-02-03T00:58:42;101855.47;;;8.37;100.00
33404;BME280;19751;40.274;18.268;2023-02-03T01:01:08;101849.53;;;8.33;100.00
33404;BME280;19751;40.274;18.268;2023-02-03T01:03:34;101856.72;;;8.33;100.00
33404;BME280;19751;40.274;18.268;2023-02-03T01:06:17;101856.59;;;8.34;100.00
33404;BME280;19751;40.274;18.268;2023-02-03T01:08:44;101857.72;;;8.32;100.00
33404;BME280;19751;40.274;18.268;2023-02-03T01:11:13;101846.16;;;8.31;100.00
33404;BME280;19751;40.274;18.268;2023-02-03T01:13:39;101850.69;;;8.31;100.00
33404;BME280;19751;40.274;18.268;2023-02-03T01:16:12;101843.63;;;8.30;100.00
33404;BME280;19751;40.274;18.268;2023-02-03T01:18:38;101848.84;;;8.31;100.00
33404;BME280;19751;40.274;18.268;2023-02-03T01:21:10;101856.19;;;8.29;100.00
33404;BME280;19751;40.274;18.268;2023-02-03T01:23:36;101852.09;;;8.25;100.00
33404;BME280;19751;40.274;18.268;2023-02-03T01:26:07;101857.63;;;8.23;100.00
33404;BME280;19751;40.274;18.268;2023-02-03T01:28:33;101847.03;;;8.22;100.00
33404;BME280;19751;40.274;18.268;2023-02-03T01:31:10;101852.41;;;8.22;100.00
33404;BME280;19751;40.274;18.268;2023-02-03T01:33:36;101846.31;;;8.20;100.00
33404;BME280;19751;40.274;18.268;2023-02-03T01:36:08;101842.13;;;8.17;100.00
33404;BME280;19751;40.274;18.268;2023-02-03T01:38:34;101845.78;;;8.16;100.00
33404;BME280;19751;40.274;18.268;2023-02-03T01:41:00;101845.25;;;8.13;100.00
33404;BME280;19751;40.274;18.268;2023-02-03T01:43:48;101855.81;;;8.14;100.00
33404;BME280;19751;40.274;18.268;2023-02-03T01:46:21;101849.06;;;8.10;100.00
33404;BME280;19751;40.274;18.268;2023-02-03T01:48:49;101841.16;;;8.09;100.00
33404;BME280;19751;40.274;18.268;2023-02-03T01:51:15;101839.16;;;8.11;100.00
33404;BME280;19751;40.274;18.268;2023-02-03T01:53:40;101830.13;;;8.12;100.00
33404;BME280;19751;40.274;18.268;2023-02-03T01:56:07;101829.44;;;8.10;100.00
33404;BME280;19751;40.274;18.268;2023-02-03T01:58:37;101833.78;;;8.11;100.00
33404;BME280;19751;40.274;18.268;2023-02-03T02:01:04;101839.75;;;8.05;100.00
33404;BME280;19751;40.274;18.268;2023-02-03T02:03:40;101847.69;;;7.96;100.00
33404;BME280;19751;40.274;18.268;2023-02-03T02:06:09;101832.44;;;7.87;100.00
33404;BME280;19751;40.274;18.268;2023-02-03T02:08:36;101835.44;;;7.84;100.00
33404;BME280;19751;40.274;18.268;2023-02-03T02:11:03;101834.59;;;7.84;100.00
33404;BME280;19751;40.274;18.268;2023-02-03T02:13:32;101831.34;;;7.80;100.00
33404;BME280;19751;40.274;18.268;2023-02-03T02:18:55;101826.84;;;7.71;100.00
33404;BME280;19751;40.274;18.268;2023-02-03T02:40:50;101834.94;;;7.32;100.00
33404;BME280;19751;40.274;18.268;2023-02-03T02:43:25;101840.13;;;7.34;100.00
33404;BME280;19751;40.274;18.268;2023-02-03T02:46:06;101847.22;;;7.35;100.00
33404;BME280;19751;40.274;18.268;2023-02-03T02:48:47;101849.88;;;7.44;100.00
33404;BME280;19751;40.274;18.268;2023-02-03T02:51:15;101851.69;;;7.54;100.00
33404;BME280;19751;40.274;18.268;2023-02-03T02:53:56;101844.50;;;7.54;100.00
33404;BME280;19751;40.274;18.268;2023-02-03T02:56:26;101845.09;;;7.48;100.00
33404;BME280;19751;40.274;18.268;2023-02-03T02:58:55;101851.72;;;7.34;100.00
33404;BME280;19751;40.274;18.268;2023-02-03T03:01:22;101847.34;;;7.14;100.00
33404;BME280;19751;40.274;18.268;2023-02-03T03:03:47;101845.47;;;6.95;100.00
33404;BME280;19751;40.274;18.268;2023-02-03T03:06:18;101853.22;;;6.88;100.00
33404;BME280;19751;40.274;18.268;2023-02-03T03:08:53;101853.78;;;6.82;100.00
33404;BME280;19751;40.274;18.268;2023-02-03T03:11:20;101853.09;;;6.80;100.00
33404;BME280;19751;40.274;18.268;2023-02-03T03:13:51;101854.63;;;6.83;100.00
33404;BME280;19751;40.274;18.268;2023-02-03T03:16:20;101862.25;;;6.87;100.00
33404;BME280;19751;40.274;18.268;2023-02-03T03:18:59;101855.19;;;6.86;100.00
33404;BME280;19751;40.274;18.268;2023-02-03T03:21:36;101856.31;;;6.84;100.00
33404;BME280;19751;40.274;18.268;2023-02-03T03:24:07;101858.03;;;6.85;100.00
33404;BME280;19751;40.274;18.268;2023-02-03T03:26:45;101861.41;;;6.87;100.00
33404;BME280;19751;40.274;18.268;2023-02-03T03:29:30;101866.34;;;6.91;100.00
33404;BME280;19751;40.274;18.268;2023-02-03T03:32:00;101868.03;;;6.92;100.00
33404;BME280;19751;40.274;18.268;2023-02-03T03:34:27;101867.75;;;6.95;100.00
33404;BME280;19751;40.274;18.268;2023-02-03T03:37:01;101872.00;;;6.98;100.00
33404;BME280;19751;40.274;18.268;2023-02-03T03:39:40;101871.84;;;7.00;100.00
33404;BME280;19751;40.274;18.268;2023-02-03T03:42:34;101877.22;;;7.00;100.00
33404;BME280;19751;40.274;18.268;2023-02-03T03:45:06;101872.56;;;7.02;100.00
33404;BME280;19751;40.274;18.268;2023-02-03T03:50:11;101869.59;;;7.05;100.00
33404;BME280;19751;40.274;18.268;2023-02-03T03:52:39;101870.16;;;7.08;100.00
33404;BME280;19751;40.274;18.268;2023-02-03T03:55:09;101879.03;;;7.09;100.00
33404;BME280;19751;40.274;18.268;2023-02-03T04:00:35;101893.75;;;7.14;100.00
33404;BME280;19751;40.274;18.268;2023-02-03T04:03:10;101883.88;;;7.15;100.00
33404;BME280;19751;40.274;18.268;2023-02-03T04:05:38;101897.00;;;7.18;100.00
33404;BME280;19751;40.274;18.268;2023-02-03T04:08:05;101898.69;;;7.19;100.00
33404;BME280;19751;40.274;18.268;2023-02-03T04:10:36;101889.22;;;7.25;100.00
33404;BME280;19751;40.274;18.268;2023-02-03T04:13:02;101888.97;;;7.28;100.00
33404;BME280;19751;40.274;18.268;2023-02-03T04:15:31;101894.16;;;7.29;98.92
33404;BME280;19751;40.274;18.268;2023-02-03T04:17:57;101932.00;;;7.36;99.55
33404;BME280;19751;40.274;18.268;2023-02-03T04:20:23;101911.66;;;7.33;100.00
33404;BME280;19751;40.274;18.268;2023-02-03T04:22:49;101922.13;;;7.36;100.00
33404;BME280;19751;40.274;18.268;2023-02-03T04:25:15;101926.78;;;7.34;100.00
33404;BME280;19751;40.274;18.268;2023-02-03T04:27:40;101920.41;;;7.26;100.00
33404;BME280;19751;40.274;18.268;2023-02-03T04:30:07;101922.38;;;7.23;100.00
33404;BME280;19751;40.274;18.268;2023-02-03T04:32:32;101940.00;;;7.16;100.00
33404;BME280;19751;40.274;18.268;2023-02-03T04:35:00;101939.28;;;7.14;100.00
33404;BME280;19751;40.274;18.268;2023-02-03T04:37:26;101937.03;;;7.10;100.00
33404;BME280;19751;40.274;18.268;2023-02-03T04:39:52;101926.31;;;7.10;100.00
33404;BME280;19751;40.274;18.268;2023-02-03T04:42:18;101923.50;;;7.11;100.00
33404;BME280;19751;40.274;18.268;2023-02-03T04:44:44;101920.38;;;7.16;100.00
33404;BME280;19751;40.274;18.268;2023-02-03T04:47:09;101921.13;;;7.18;100.00
33404;BME280;19751;40.274;18.268;2023-02-03T04:49:35;101912.22;;;7.17;100.00
33404;BME280;19751;40.274;18.268;2023-02-03T04:52:00;101915.75;;;7.18;100.00
33404;BME280;19751;40.274;18.268;2023-02-03T04:54:26;101917.59;;;7.17;100.00
33404;BME280;19751;40.274;18.268;2023-02-03T04:56:51;101916.28;;;7.12;100.00
33404;BME280;19751;40.274;18.268;2023-02-03T04:59:17;101914.19;;;7.06;100.00
33404;BME280;19751;40.274;18.268;2023-02-03T05:01:42;101928.69;;;7.03;100.00
33404;BME280;19751;40.274;18.268;2023-02-03T05:04:08;101937.81;;;7.01;100.00
33404;BME280;19751;40.274;18.268;2023-02-03T05:06:33;101931.06;;;6.96;100.00
33404;BME280;19751;40.274;18.268;2023-02-03T05:08:59;101933.72;;;6.96;100.00
33404;BME280;19751;40.274;18.268;2023-02-03T05:11:25;101944.44;;;6.96;99.42
33404;BME280;19751;40.274;18.268;2023-02-03T05:13:51;101953.63;;;6.94;97.88
33404;BME280;19751;40.274;18.268;2023-02-03T05:16:17;101940.34;;;6.92;97.58
33404;BME280;19751;40.274;18.268;2023-02-03T05:18:42;101948.53;;;6.91;97.65
33404;BME280;19751;40.274;18.268;2023-02-03T05:21:08;101943.59;;;6.86;97.88
33404;BME280;19751;40.274;18.268;2023-02-03T05:23:33;101954.56;;;6.83;98.50
33404;BME280;19751;40.274;18.268;2023-02-03T05:25:59;101953.00;;;6.81;99.18
33404;BME280;19751;40.274;18.268;2023-02-03T05:28:24;101961.72;;;6.73;99.40
33404;BME280;19751;40.274;18.268;2023-02-03T05:30:50;101961.00;;;6.71;99.78
33404;BME280;19751;40.274;18.268;2023-02-03T05:33:16;101963.66;;;6.71;100.00
33404;BME280;19751;40.274;18.268;2023-02-03T05:35:41;101967.59;;;6.67;99.79
33404;BME280;19751;40.274;18.268;2023-02-03T05:38:07;101968.19;;;6.70;100.00
33404;BME280;19751;40.274;18.268;2023-02-03T05:40:33;101963.66;;;6.71;100.00
33404;BME280;19751;40.274;18.268;2023-02-03T05:43:16;101969.75;;;6.73;100.00
33404;BME280;19751;40.274;18.268;2023-02-03T05:45:42;101973.69;;;6.69;100.00
33404;BME280;19751;40.274;18.268;2023-02-03T05:48:07;101970.28;;;6.67;100.00
33404;BME280;19751;40.274;18.268;2023-02-03T05:50:34;101973.78;;;6.67;100.00
33404;BME280;19751;40.274;18.268;2023-02-03T05:53:03;101972.84;;;6.68;100.00
33404;BME280;19751;40.274;18.268;2023-02-03T05:55:30;101965.38;;;6.72;100.00
33404;BME280;19751;40.274;18.268;2023-02-03T05:57:56;101961.47;;;6.76;100.00
33404;BME280;19751;40.274;18.268;2023-02-03T06:00:22;101960.22;;;6.80;100.00
33404;BME280;19751;40.274;18.268;2023-02-03T06:02:58;101972.59;;;6.81;100.00
33404;BME280;19751;40.274;18.268;2023-02-03T06:05:26;101985.25;;;6.79;100.00
33404;BME280;19751;40.274;18.268;2023-02-03T06:07:53;101990.03;;;6.76;100.00
33404;BME280;19751;40.274;18.268;2023-02-03T06:10:19;101997.69;;;6.80;100.00
33404;BME280;19751;40.274;18.268;2023-02-03T06:12:45;101996.72;;;6.81;100.00
33404;BME280;19751;40.274;18.268;2023-02-03T06:15:11;102004.75;;;6.81;100.00
33404;BME280;19751;40.274;18.268;2023-02-03T06:17:36;101996.13;;;6.78;100.00
33404;BME280;19751;40.274;18.268;2023-02-03T06:20:06;102003.31;;;6.77;100.00
33404;BME280;19751;40.274;18.268;2023-02-03T06:22:32;101995.97;;;6.79;100.00
33404;BME280;19751;40.274;18.268;2023-02-03T06:24:58;102003.06;;;6.80;100.00
33404;BME280;19751;40.274;18.268;2023-02-03T06:27:23;102000.09;;;6.83;100.00
33404;BME280;19751;40.274;18.268;2023-02-03T06:29:49;101998.00;;;6.87;100.00
33404;BME280;19751;40.274;18.268;2023-02-03T06:32:15;102003.78;;;6.92;100.00
33404;BME280;19751;40.274;18.268;2023-02-03T06:34:41;102013.41;;;6.94;100.00
33404;BME280;19751;40.274;18.268;2023-02-03T06:37:07;102026.78;;;6.94;100.00
33404;BME280;19751;40.274;18.268;2023-02-03T06:39:32;102028.47;;;6.95;100.00
33404;BME280;19751;40.274;18.268;2023-02-03T06:41:58;102025.69;;;6.97;100.00
33404;BME280;19751;40.274;18.268;2023-02-03T06:44:24;102024.53;;;7.00;100.00
33404;BME280;19751;40.274;18.268;2023-02-03T06:46:50;102035.00;;;7.03;100.00
33404;BME280;19751;40.274;18.268;2023-02-03T06:49:16;102036.69;;;7.04;100.00
33404;BME280;19751;40.274;18.268;2023-02-03T06:51:43;102031.06;;;7.07;100.00
33404;BME280;19751;40.274;18.268;2023-02-03T06:54:09;102034.19;;;7.12;100.00
33404;BME280;19751;40.274;18.268;2023-02-03T06:56:36;102046.31;;;7.16;100.00
33404;BME280;19751;40.274;18.268;2023-02-03T06:59:01;102045.22;;;7.18;100.00
33404;BME280;19751;40.274;18.268;2023-02-03T07:01:27;102040.72;;;7.19;100.00
33404;BME280;19751;40.274;18.268;2023-02-03T07:03:54;102039.44;;;7.23;100.00
33404;BME280;19751;40.274;18.268;2023-02-03T07:06:22;102045.25;;;7.28;100.00
33404;BME280;19751;40.274;18.268;2023-02-03T07:08:48;102051.59;;;7.27;100.00
33404;BME280;19751;40.274;18.268;2023-02-03T07:11:13;102052.59;;;7.26;100.00
33404;BME280;19751;40.274;18.268;2023-02-03T07:13:39;102056.22;;;7.25;100.00
33404;BME280;19751;40.274;18.268;2023-02-03T07:16:05;102063.44;;;7.25;100.00
33404;BME280;19751;40.274;18.268;2023-02-03T07:18:31;102059.91;;;7.24;100.00
33404;BME280;19751;40.274;18.268;2023-02-03T07:20:56;102060.75;;;7.25;100.00
33404;BME280;19751;40.274;18.268;2023-02-03T07:23:21;102064.16;;;7.27;100.00
33404;BME280;19751;40.274;18.268;2023-02-03T07:25:47;102066.41;;;7.31;100.00
33404;BME280;19751;40.274;18.268;2023-02-03T07:28:13;102058.81;;;7.36;100.00
33404;BME280;19751;40.274;18.268;2023-02-03T07:30:38;102061.81;;;7.43;100.00
33404;BME280;19751;40.274;18.268;2023-02-03T07:33:04;102062.81;;;7.52;100.00
33404;BME280;19751;40.274;18.268;2023-02-03T07:35:29;102065.66;;;7.60;100.00
33404;BME280;19751;40.274;18.268;2023-02-03T07:37:55;102068.34;;;7.69;100.00
33404;BME280;19751;40.274;18.268;2023-02-03T07:40:20;102072.19;;;7.77;100.00
33404;BME280;19751;40.274;18.268;2023-02-03T07:42:47;102068.94;;;7.83;100.00
33404;BME280;19751;40.274;18.268;2023-02-03T07:45:15;102070.09;;;7.90;100.00
33404;BME280;19751;40.274;18.268;2023-02-03T07:47:41;102074.75;;;7.97;100.00
33404;BME280;19751;40.274;18.268;2023-02-03T07:50:09;102080.13;;;8.07;100.00
33404;BME280;19751;40.274;18.268;2023-02-03T07:52:35;102078.72;;;8.13;100.00
33404;BME280;19751;40.274;18.268;2023-02-03T07:55:01;102082.69;;;8.18;100.00
33404;BME280;19751;40.274;18.268;2023-02-03T07:57:26;102093.56;;;8.27;100.00
33404;BME280;19751;40.274;18.268;2023-02-03T07:59:52;102097.09;;;8.37;100.00
33404;BME280;19751;40.274;18.268;2023-02-03T08:02:17;102096.56;;;8.43;100.00
33404;BME280;19751;40.274;18.268;2023-02-03T08:04:43;102099.50;;;8.50;100.00
33404;BME280;19751;40.274;18.268;2023-02-03T08:07:08;102093.41;;;8.57;100.00
33404;BME280;19751;40.274;18.268;2023-02-03T08:09:34;102102.44;;;8.66;100.00
33404;BME280;19751;40.274;18.268;2023-02-03T08:11:59;102100.72;;;8.75;100.00
33404;BME280;19751;40.274;18.268;2023-02-03T08:14:25;102111.47;;;8.84;100.00
33404;BME280;19751;40.274;18.268;2023-02-03T08:16:50;102114.13;;;8.94;100.00
33404;BME280;19751;40.274;18.268;2023-02-03T08:19:16;102113.25;;;9.03;100.00
33404;BME280;19751;40.274;18.268;2023-02-03T08:21:41;102116.22;;;9.10;100.00
33404;BME280;19751;40.274;18.268;2023-02-03T08:24:07;102127.38;;;9.15;100.00
33404;BME280;19751;40.274;18.268;2023-02-03T08:26:34;102131.63;;;9.17;100.00
33404;BME280;19751;40.274;18.268;2023-02-03T08:29:00;102132.88;;;9.23;100.00
33404;BME280;19751;40.274;18.268;2023-02-03T08:31:25;102132.28;;;9.29;100.00
33404;BME280;19751;40.274;18.268;2023-02-03T08:33:51;102132.41;;;9.37;100.00
33404;BME280;19751;40.274;18.268;2023-02-03T08:36:19;102117.06;;;9.48;100.00
33404;BME280;19751;40.274;18.268;2023-02-03T08:38:45;102125.91;;;9.58;100.00
33404;BME280;19751;40.274;18.268;2023-02-03T08:41:12;102116.53;;;9.71;100.00
33404;BME280;19751;40.274;18.268;2023-02-03T08:43:39;102132.03;;;9.87;100.00
33404;BME280;19751;40.274;18.268;2023-02-03T08:46:07;102141.72;;;9.98;100.00
33404;BME280;19751;40.274;18.268;2023-02-03T08:48:34;102136.19;;;10.00;100.00
33404;BME280;19751;40.274;18.268;2023-02-03T08:51:00;102139.94;;;10.07;100.00
33404;BME280;19751;40.274;18.268;2023-02-03T08:53:26;102143.28;;;10.18;100.00
33404;BME280;19751;40.274;18.268;2023-02-03T08:55:52;102140.53;;;10.28;100.00
33404;BME280;19751;40.274;18.268;2023-02-03T08:58:17;102158.78;;;10.34;100.00
33404;BME280;19751;40.274;18.268;2023-02-03T09:00:43;102157.19;;;10.41;100.00
33404;BME280;19751;40.274;18.268;2023-02-03T09:03:09;102160.63;;;10.52;100.00
33404;BME280;19751;40.274;18.268;2023-02-03T09:05:34;102159.03;;;10.59;100.00
33404;BME280;19751;40.274;18.268;2023-02-03T09:08:00;102162.25;;;10.62;100.00
33404;BME280;19751;40.274;18.268;2023-02-03T09:10:26;102156.22;;;10.68;100.00
33404;BME280;19751;40.274;18.268;2023-02-03T09:12:51;102158.44;;;10.73;100.00
33404;BME280;19751;40.274;18.268;2023-02-03T09:15:17;102175.34;;;10.75;100.00
33404;BME280;19751;40.274;18.268;2023-02-03T09:17:42;102163.38;;;10.78;100.00
33404;BME280;19751;40.274;18.268;2023-02-03T09:20:08;102168.63;;;10.79;100.00
33404;BME280;19751;40.274;18.268;2023-02-03T09:22:34;102171.88;;;10.83;100.00
33404;BME280;19751;40.274;18.268;2023-02-03T09:24:59;102176.44;;;10.90;97.40
33404;BME280;19751;40.274;18.268;2023-02-03T09:27:25;102171.47;;;10.95;87.92
33404;BME280;19751;40.274;18.268;2023-02-03T09:29:51;102179.06;;;11.00;87.49
33404;BME280;19751;40.274;18.268;2023-02-03T09:32:16;102181.97;;;11.07;84.74
33404;BME280;19751;40.274;18.268;2023-02-03T09:34:42;102169.19;;;11.09;78.19
33404;BME280;19751;40.274;18.268;2023-02-03T09:37:08;102160.78;;;11.12;73.22
33404;BME280;19751;40.274;18.268;2023-02-03T09:39:33;102169.72;;;11.12;65.38
33404;BME280;19751;40.274;18.268;2023-02-03T09:45:03;102165.75;;;11.25;56.36
33404;BME280;19751;40.274;18.268;2023-02-03T09:47:39;102168.28;;;11.26;52.63
33404;BME280;19751;40.274;18.268;2023-02-03T09:50:12;102163.41;;;11.30;52.20
33404;BME280;19751;40.274;18.268;2023-02-03T09:52:40;102170.34;;;11.32;53.22
33404;BME280;19751;40.274;18.268;2023-02-03T09:55:26;102165.31;;;11.37;55.12
33404;BME280;19751;40.274;18.268;2023-02-03T09:58:14;102162.44;;;11.39;57.57
33404;BME280;19751;40.274;18.268;2023-02-03T10:00:46;102173.59;;;11.44;59.74
33404;BME280;19751;40.274;18.268;2023-02-03T10:05:55;102168.91;;;11.46;62.96
33404;BME280;19751;40.274;18.268;2023-02-03T10:18:50;102182.81;;;11.59;65.60
33404;BME280;19751;40.274;18.268;2023-02-03T10:21:40;102193.28;;;11.62;64.29
33404;BME280;19751;40.274;18.268;2023-02-03T10:24:12;102179.63;;;11.64;64.61
33404;BME280;19751;40.274;18.268;2023-02-03T10:26:40;102185.53;;;11.67;64.88
33404;BME280;19751;40.274;18.268;2023-02-03T10:31:46;102174.56;;;11.69;62.76
33404;BME280;19751;40.274;18.268;2023-02-03T10:34:16;102173.72;;;11.68;62.62
33404;BME280;19751;40.274;18.268;2023-02-03T10:39:50;102183.91;;;11.75;64.87
33404;BME280;19751;40.274;18.268;2023-02-03T10:42:16;102173.75;;;11.77;64.41
33404;BME280;19751;40.274;18.268;2023-02-03T10:44:46;102177.16;;;11.79;63.37
33404;BME280;19751;40.274;18.268;2023-02-03T10:47:33;102160.78;;;11.80;61.70
33404;BME280;19751;40.274;18.268;2023-02-03T10:50:08;102154.72;;;11.78;60.21
33404;BME280;19751;40.274;18.268;2023-02-03T10:52:39;102158.59;;;11.76;59.35
33404;BME280;19751;40.274;18.268;2023-02-03T10:55:28;102156.72;;;11.76;59.17
33404;BME280;19751;40.274;18.268;2023-02-03T10:57:55;102154.72;;;11.78;58.50
33404;BME280;19751;40.274;18.268;2023-02-03T11:00:30;102153.72;;;11.79;58.49
33404;BME280;19751;40.274;18.268;2023-02-03T11:03:06;102157.25;;;11.80;59.05
33404;BME280;19751;40.274;18.268;2023-02-03T11:05:32;102150.31;;;11.77;58.84
33404;BME280;19751;40.274;18.268;2023-02-03T11:07:58;102155.72;;;11.77;58.94
33404;BME280;19751;40.274;18.268;2023-02-03T11:10:30;102147.78;;;11.76;57.76
33404;BME280;19751;40.274;18.268;2023-02-03T11:13:23;102150.31;;;11.77;57.15
33404;BME280;19751;40.274;18.268;2023-02-03T11:16:04;102155.56;;;11.79;56.27
33404;BME280;19751;40.274;18.268;2023-02-03T11:18:58;102151.16;;;11.78;55.53
33404;BME280;19751;40.274;18.268;2023-02-03T11:21:40;102144.91;;;11.77;52.84
33404;BME280;19751;40.274;18.268;2023-02-03T11:27:14;102152.88;;;11.79;50.10
33404;BME280;19751;40.274;18.268;2023-02-03T11:30:14;102141.22;;;11.78;48.29
33404;BME280;19751;40.274;18.268;2023-02-03T11:32:39;102138.69;;;11.77;47.88
33404;BME280;19751;40.274;18.268;2023-02-03T11:35:16;102135.84;;;11.78;47.61
33404;BME280;19751;40.274;18.268;2023-02-03T11:37:48;102125.03;;;11.78;47.67
33404;BME280;19751;40.274;18.268;2023-02-03T11:42:41;102136.66;;;11.79;47.62
33404;BME280;19751;40.274;18.268;2023-02-03T11:50:37;102115.59;;;11.82;49.53
33404;BME280;19751;40.274;18.268;2023-02-03T12:12:57;102070.91;;;11.88;48.84
33404;BME280;19751;40.274;18.268;2023-02-03T12:28:20;102055.75;;;11.87;46.66
33404;BME280;19751;40.274;18.268;2023-02-03T12:30:59;102053.38;;;11.84;46.67
33404;BME280;19751;40.274;18.268;2023-02-03T12:33:32;102038.19;;;11.83;47.20
33404;BME280;19751;40.274;18.268;2023-02-03T12:36:08;102054.50;;;11.81;48.18
33404;BME280;19751;40.274;18.268;2023-02-03T12:38:42;102065.28;;;11.81;48.21
33404;BME280;19751;40.274;18.268;2023-02-03T12:41:15;102050.81;;;11.82;48.05
33404;BME280;19751;40.274;18.268;2023-02-03T12:43:45;102057.91;;;11.83;48.75
33404;BME280;19751;40.274;18.268;2023-02-03T12:52:13;102047.13;;;11.91;47.17
33404;BME280;19751;40.274;18.268;2023-02-03T12:54:56;102042.91;;;11.89;47.63
33404;BME280;19751;40.274;18.268;2023-02-03T12:57:38;102042.25;;;11.87;47.54
33404;BME280;19751;40.274;18.268;2023-02-03T13:00:45;102039.03;;;11.83;47.59
33404;BME280;19751;40.274;18.268;2023-02-03T13:03:27;102046.28;;;11.83;47.56
33404;BME280;19751;40.274;18.268;2023-02-03T13:06:06;102037.44;;;11.81;46.95
33404;BME280;19751;40.274;18.268;2023-02-03T13:13:51;102040.47;;;11.78;47.63
33404;BME280;19751;40.274;18.268;2023-02-03T13:16:23;102035.94;;;11.78;47.12
33404;BME280;19751;40.274;18.268;2023-02-03T13:18:58;102032.22;;;11.79;47.24
33404;BME280;19751;40.274;18.268;2023-02-03T13:21:26;102025.81;;;11.80;46.85
33404;BME280;19751;40.274;18.268;2023-02-03T13:23:52;102036.94;;;11.77;46.39
33404;BME280;19751;40.274;18.268;2023-02-03T13:29:07;102033.56;;;11.75;44.65
33404;BME280;19751;40.274;18.268;2023-02-03T13:32:03;102031.91;;;11.74;44.95
33404;BME280;19751;40.274;18.268;2023-02-03T13:37:22;102036.44;;;11.74;45.35
33404;BME280;19751;40.274;18.268;2023-02-03T13:42:33;102027.47;;;11.73;44.75
33404;BME280;19751;40.274;18.268;2023-02-03T13:47:58;102032.72;;;11.75;45.56
33404;BME280;19751;40.274;18.268;2023-02-03T13:50:28;102042.34;;;11.77;45.65
33404;BME280;19751;40.274;18.268;2023-02-03T13:53:03;102042.00;;;11.80;45.53
33404;BME280;19751;40.274;18.268;2023-02-03T13:55:37;102050.94;;;11.81;45.46
33404;BME280;19751;40.274;18.268;2023-02-03T13:58:05;102045.41;;;11.82;45.46
33404;BME280;19751;40.274;18.268;2023-02-03T14:05:50;102045.09;;;11.85;46.36
33404;BME280;19751;40.274;18.268;2023-02-03T14:16:48;102040.53;;;11.86;47.49
33404;BME280;19751;40.274;18.268;2023-02-03T14:21:53;102035.78;;;11.80;47.70
33404;BME280;19751;40.274;18.268;2023-02-03T14:24:20;102036.44;;;11.74;47.88
33404;BME280;19751;40.274;18.268;2023-02-03T14:26:49;102029.69;;;11.69;47.71
33404;BME280;19751;40.274;18.268;2023-02-03T14:29:33;102048.91;;;11.66;48.38
33404;BME280;19751;40.274;18.268;2023-02-03T14:32:01;102053.63;;;11.64;48.21
33404;BME280;19751;40.274;18.268;2023-02-03T14:37:24;102041.84;;;11.65;48.40
33404;BME280;19751;40.274;18.268;2023-02-03T14:45:49;102036.22;;;11.59;47.76
33404;BME280;19751;40.274;18.268;2023-02-03T14:49:04;102038.22;;;11.57;47.67
33404;BME280;19751;40.274;18.268;2023-02-03T15:04:42;102039.94;;;11.50;48.41
33404;BME280;19751;40.274;18.268;2023-02-03T15:07:33;102049.00;;;11.49;48.13
33404;BME280;19751;40.274;18.268;2023-02-03T15:09:59;102043.13;;;11.45;48.36
33404;BME280;19751;40.274;18.268;2023-02-03T15:12:25;102043.25;;;11.43;48.47
33404;BME280;19751;40.274;18.268;2023-02-03T15:15:30;102027.06;;;11.43;48.68
33404;BME280;19751;40.274;18.268;2023-02-03T15:17:58;102029.09;;;11.41;48.92
33404;BME280;19751;40.274;18.268;2023-02-03T15:22:53;102035.84;;;11.37;48.84
33404;BME280;19751;40.274;18.268;2023-02-03T15:25:21;102030.75;;;11.34;48.46
33404;BME280;19751;40.274;18.268;2023-02-03T15:27:46;102032.25;;;11.29;48.44